Time;durP1;ratioP1;P1;durP2;ratioP2;P2;SDS_P1;SDS_P2;PMS_P1;PMS_P2;Temp;Humidity;BMP_temperature;BMP_pressure;BME280_temperature;BME280_humidity;BME280_pressure;Samples;Min_cycle;Max_cycle;Signal;HPM_P1;HPM_P2
2022/03/19 00:00:06;;;;;;;21.47;15.57;;;4.40;99.90;;;;;;5093404;28;20468;-75
2022/03/19 00:02:54;;;;;;;18.53;15.20;;;4.40;99.90;;;;;;5094986;28;20517;-75
2022/03/19 00:05:42;;;;;;;18.67;14.77;;;4.30;99.90;;;;;;5092962;28;20561;-73
2022/03/19 00:08:30;;;;;;;23.17;14.40;;;4.30;99.90;;;;;;5092487;28;20451;-72
2022/03/19 00:11:20;;;;;;;24.60;15.23;;;4.30;99.90;;;;;;5089743;28;20593;-72
2022/03/19 00:14:12;;;;;;;17.77;13.80;;;4.30;99.90;;;;;;5091864;28;20491;-73
2022/03/19 00:17:00;;;;;;;16.90;13.70;;;4.20;99.90;;;;;;5088712;28;20464;-73
2022/03/19 00:19:48;;;;;;;17.43;14.47;;;4.20;99.90;;;;;;5089365;28;20552;-73
2022/03/19 00:22:37;;;;;;;16.43;13.67;;;4.20;99.90;;;;;;5090521;28;20576;-73
2022/03/19 00:25:25;;;;;;;20.07;14.30;;;4.10;99.90;;;;;;5090274;28;20576;-74
2022/03/19 00:28:18;;;;;;;16.90;14.30;;;4.10;99.90;;;;;;5085837;28;20484;-71
2022/03/19 00:31:07;;;;;;;16.33;13.97;;;4.10;99.90;;;;;;5088865;28;20551;-71
2022/03/19 00:33:56;;;;;;;19.73;13.67;;;4.00;99.90;;;;;;5088447;28;20485;-71
2022/03/19 00:36:44;;;;;;;19.20;13.03;;;3.90;99.90;;;;;;5092423;28;20902;-71
2022/03/19 00:39:32;;;;;;;19.03;14.00;;;3.90;99.90;;;;;;5091813;28;20546;-72
2022/03/19 00:42:20;;;;;;;19.13;13.20;;;3.90;99.90;;;;;;5091444;27;20475;-72
2022/03/19 00:45:09;;;;;;;16.73;13.30;;;3.80;99.90;;;;;;5096876;28;20559;-71
2022/03/19 00:47:59;;;;;;;15.90;12.70;;;3.80;99.90;;;;;;5094159;28;20886;-72
2022/03/19 00:50:49;;;;;;;18.57;14.17;;;3.70;99.90;;;;;;5098212;28;20525;-72
2022/03/19 00:53:37;;;;;;;14.70;12.90;;;3.70;99.90;;;;;;5093370;28;20468;-73
2022/03/19 00:56:25;;;;;;;18.77;12.70;;;3.70;99.90;;;;;;5106994;28;20483;-71
2022/03/19 00:59:14;;;;;;;14.40;12.83;;;3.70;99.90;;;;;;5119609;28;20456;-72
2022/03/19 01:02:04;;;;;;;17.33;12.10;;;3.70;99.90;;;;;;5096445;28;20464;-73
2022/03/19 01:04:54;;;;;;;17.10;12.13;;;3.70;99.90;;;;;;5095597;28;20484;-73
2022/03/19 01:07:44;;;;;;;13.37;10.87;;;3.70;99.90;;;;;;5097440;28;21059;-75
2022/03/19 01:10:34;;;;;;;15.60;10.67;;;3.70;99.90;;;;;;5090552;27;20464;-74
2022/03/19 01:13:22;;;;;;;11.13;9.50;;;3.80;99.90;;;;;;5096149;27;20464;-74
2022/03/19 01:16:10;;;;;;;16.07;9.87;;;3.80;99.90;;;;;;5093802;28;20504;-75
2022/03/19 01:18:58;;;;;;;12.73;9.37;;;3.80;99.90;;;;;;5091527;28;21246;-74
2022/03/19 01:21:48;;;;;;;13.30;9.90;;;3.80;99.90;;;;;;5090893;27;20504;-76
2022/03/19 01:24:36;;;;;;;13.00;9.20;;;3.80;99.90;;;;;;5095317;27;20899;-76
2022/03/19 01:27:24;;;;;;;12.90;9.37;;;3.70;99.90;;;;;;5091912;27;20440;-76
2022/03/19 01:30:14;;;;;;;14.40;8.47;;;3.70;99.90;;;;;;5091808;28;20448;-75
2022/03/19 01:33:02;;;;;;;14.17;9.37;;;3.70;99.90;;;;;;5096830;27;20472;-76
2022/03/19 01:35:51;;;;;;;12.83;8.93;;;3.70;99.90;;;;;;5088902;28;20563;-74
2022/03/19 01:38:40;;;;;;;12.00;9.03;;;3.70;99.90;;;;;;5095646;27;20877;-74
2022/03/19 01:41:28;;;;;;;12.90;9.00;;;3.70;99.90;;;;;;5096259;28;20571;-74
2022/03/19 01:44:19;;;;;;;15.80;9.27;;;3.60;99.90;;;;;;5083782;27;20518;-74
2022/03/19 01:47:10;;;;;;;13.83;9.23;;;3.60;99.90;;;;;;5092682;28;20461;-74
2022/03/19 01:49:59;;;;;;;12.20;8.93;;;3.60;99.90;;;;;;5095212;28;20463;-73
2022/03/19 01:52:47;;;;;;;14.50;9.60;;;3.50;99.90;;;;;;5095355;28;20528;-73
2022/03/19 01:55:37;;;;;;;13.23;9.07;;;3.50;99.90;;;;;;5092323;28;20570;-73
2022/03/19 01:58:25;;;;;;;11.47;8.47;;;3.50;99.90;;;;;;5092808;28;20459;-74
2022/03/19 02:01:14;;;;;;;11.63;9.47;;;3.50;99.90;;;;;;5091012;28;20950;-73
2022/03/19 02:04:03;;;;;;;14.03;9.30;;;3.40;99.90;;;;;;5096173;27;20952;-73
2022/03/19 02:06:54;;;;;;;12.27;8.67;;;3.40;99.90;;;;;;5092626;28;20472;-72
2022/03/19 02:09:43;;;;;;;12.30;9.27;;;3.30;99.90;;;;;;5094899;28;20460;-74
2022/03/19 02:12:32;;;;;;;12.00;8.60;;;3.30;99.90;;;;;;5088874;27;20535;-73
2022/03/19 02:15:20;;;;;;;11.67;7.70;;;3.30;99.90;;;;;;5092491;28;21028;-75
2022/03/19 02:18:09;;;;;;;14.07;8.40;;;3.30;99.90;;;;;;5094107;28;20449;-75
2022/03/19 02:20:58;;;;;;;11.37;8.47;;;3.30;99.90;;;;;;5088700;28;20472;-75
2022/03/19 02:27:02;;;;;;;8.87;7.70;;;3.20;99.90;;;;;;5092857;28;20696;-74
2022/03/19 02:29:51;;;;;;;9.13;8.13;;;3.10;99.90;;;;;;5092769;28;20558;-74
2022/03/19 02:32:40;;;;;;;13.60;8.80;;;3.10;99.90;;;;;;5091742;28;20975;-74
2022/03/19 02:35:29;;;;;;;11.17;7.50;;;3.10;99.90;;;;;;5092816;28;20607;-74
2022/03/19 02:38:17;;;;;;;11.13;8.30;;;3.10;99.90;;;;;;5087884;28;20539;-73
2022/03/19 02:41:06;;;;;;;12.27;7.70;;;3.10;99.90;;;;;;5091315;28;20452;-73
2022/03/19 02:43:54;;;;;;;12.47;7.30;;;3.10;99.90;;;;;;5092562;28;20589;-74
2022/03/19 02:46:44;;;;;;;20.33;9.20;;;3.10;99.90;;;;;;5093623;28;20498;-73
2022/03/19 02:49:32;;;;;;;13.60;7.70;;;3.00;99.90;;;;;;5092177;28;20877;-76
2022/03/19 02:52:20;;;;;;;13.43;7.20;;;3.00;99.90;;;;;;5093353;28;21024;-76
2022/03/19 02:55:09;;;;;;;9.47;7.50;;;3.00;99.90;;;;;;5095403;28;20546;-75
2022/03/19 02:57:58;;;;;;;11.73;7.23;;;2.90;99.90;;;;;;5091712;28;20495;-76
2022/03/19 03:00:46;;;;;;;8.60;6.90;;;2.90;99.90;;;;;;5097189;28;20826;-75
2022/03/19 03:03:35;;;;;;;9.40;7.17;;;2.90;99.90;;;;;;5090695;28;20946;-74
2022/03/19 03:06:24;;;;;;;11.23;7.60;;;2.90;99.90;;;;;;5093394;28;20480;-74
2022/03/19 03:09:13;;;;;;;12.23;7.47;;;2.90;99.90;;;;;;5092483;28;20447;-74
2022/03/19 03:12:02;;;;;;;11.87;6.80;;;2.90;99.90;;;;;;5091665;27;20520;-74
2022/03/19 03:14:51;;;;;;;10.37;6.83;;;2.90;99.90;;;;;;5089958;28;20476;-74
2022/03/19 03:17:40;;;;;;;8.60;7.03;;;2.80;99.90;;;;;;5087548;27;20550;-73
2022/03/19 03:20:28;;;;;;;12.80;6.90;;;2.80;99.90;;;;;;5086798;28;20823;-73
2022/03/19 03:23:17;;;;;;;11.70;6.67;;;2.80;99.90;;;;;;5086045;28;20487;-73
2022/03/19 03:26:05;;;;;;;8.57;6.70;;;2.70;99.90;;;;;;5091335;28;20556;-74
2022/03/19 03:28:53;;;;;;;8.57;5.90;;;2.70;99.90;;;;;;5090691;28;20450;-74
2022/03/19 03:31:43;;;;;;;8.80;6.70;;;2.70;99.90;;;;;;5090310;28;20544;-74
2022/03/19 03:34:31;;;;;;;10.97;7.07;;;2.70;99.90;;;;;;5088082;28;20591;-73
2022/03/19 03:37:19;;;;;;;11.47;6.77;;;2.70;99.90;;;;;;5093114;28;20443;-74
2022/03/19 03:40:08;;;;;;;10.57;6.83;;;2.60;99.90;;;;;;5092970;28;20485;-73
2022/03/19 03:42:57;;;;;;;10.57;6.37;;;2.60;99.90;;;;;;5092282;28;20986;-74
2022/03/19 03:45:45;;;;;;;11.70;6.40;;;2.60;99.90;;;;;;5091570;28;20512;-74
2022/03/19 03:48:36;;;;;;;11.07;6.20;;;2.50;99.90;;;;;;5098316;28;20448;-73
2022/03/19 03:51:24;;;;;;;10.63;6.80;;;2.50;99.90;;;;;;5116880;28;20448;-74
2022/03/19 03:54:12;;;;;;;9.57;5.80;;;2.50;99.90;;;;;;5093890;28;20587;-73
2022/03/19 03:57:01;;;;;;;10.50;6.30;;;2.50;99.90;;;;;;5096145;28;20439;-74
2022/03/19 03:59:50;;;;;;;7.33;5.70;;;2.50;99.90;;;;;;5089631;28;20455;-73
2022/03/19 04:02:39;;;;;;;8.97;6.17;;;2.40;99.90;;;;;;5097725;28;20502;-74
2022/03/19 04:05:28;;;;;;;9.40;6.30;;;2.40;99.90;;;;;;5095343;28;21036;-72
2022/03/19 04:08:17;;;;;;;11.30;6.50;;;2.40;99.90;;;;;;5094005;28;20543;-72
2022/03/19 04:11:05;;;;;;;7.30;5.67;;;2.30;99.90;;;;;;5096195;28;21091;-73
2022/03/19 04:13:53;;;;;;;10.87;5.40;;;2.30;99.90;;;;;;5094870;28;20452;-73
2022/03/19 04:16:43;;;;;;;10.30;5.77;;;2.30;99.90;;;;;;5097422;28;20948;-73
2022/03/19 04:19:32;;;;;;;8.60;6.77;;;2.30;99.90;;;;;;5095998;28;20468;-73
2022/03/19 04:22:21;;;;;;;9.37;5.97;;;2.20;99.90;;;;;;5098264;28;20906;-75
2022/03/19 04:25:12;;;;;;;10.40;6.07;;;2.10;99.90;;;;;;5095272;28;20468;-75
2022/03/19 04:28:01;;;;;;;8.40;5.70;;;2.10;99.90;;;;;;5096209;28;20536;-73
2022/03/19 04:30:49;;;;;;;10.30;5.70;;;2.10;99.90;;;;;;5093304;28;20925;-74
2022/03/19 04:33:38;;;;;;;11.43;6.30;;;2.00;99.90;;;;;;5094755;28;20467;-74
2022/03/19 04:36:31;;;;;;;6.87;5.30;;;2.00;99.90;;;;;;5091319;28;20651;-74
2022/03/19 04:39:20;;;;;;;8.37;5.40;;;1.90;99.90;;;;;;5094624;28;20546;-74
2022/03/19 04:42:08;;;;;;;9.50;6.00;;;1.90;99.90;;;;;;5096909;28;20984;-74
2022/03/19 04:44:56;;;;;;;8.77;5.53;;;1.80;99.90;;;;;;5096163;28;20472;-74
2022/03/19 04:47:44;;;;;;;9.50;5.90;;;1.80;99.90;;;;;;5094954;27;20459;-75
2022/03/19 04:50:35;;;;;;;8.87;5.03;;;1.80;99.90;;;;;;5093644;28;20457;-75
2022/03/19 04:53:24;;;;;;;7.83;5.87;;;1.80;99.90;;;;;;5095248;28;20471;-75
2022/03/19 04:56:14;;;;;;;8.23;5.77;;;1.70;99.90;;;;;;5095000;28;20583;-75
2022/03/19 04:59:04;;;;;;;9.30;6.20;;;1.60;99.90;;;;;;5094631;27;20555;-73
2022/03/19 05:01:52;;;;;;;6.83;5.93;;;1.60;99.90;;;;;;5089884;27;20858;-74
2022/03/19 05:04:40;;;;;;;11.23;5.87;;;1.60;99.90;;;;;;5093132;27;20610;-74
2022/03/19 05:07:35;;;;;;;7.50;5.50;;;1.60;99.90;;;;;;5096577;28;20566;-75
2022/03/19 05:13:30;;;;;;;8.07;5.63;;;1.60;99.90;;;;;;5099189;27;20503;-75
2022/03/19 05:16:18;;;;;;;10.77;5.80;;;1.60;99.90;;;;;;5091898;28;20525;-74
2022/03/19 05:19:07;;;;;;;6.17;5.50;;;1.50;99.90;;;;;;5094060;28;20512;-75
2022/03/19 05:21:55;;;;;;;9.10;5.73;;;1.50;99.90;;;;;;5092074;27;21027;-75
2022/03/19 05:24:43;;;;;;;8.47;5.27;;;1.40;99.90;;;;;;5093052;27;20628;-75
2022/03/19 05:27:31;;;;;;;11.33;5.60;;;1.50;99.90;;;;;;5097104;28;20444;-74
2022/03/19 05:30:21;;;;;;;12.17;6.57;;;1.40;99.90;;;;;;5093423;28;20453;-73
2022/03/19 05:33:10;;;;;;;10.03;5.80;;;1.40;99.90;;;;;;5095682;28;20558;-73
2022/03/19 05:35:58;;;;;;;7.90;5.40;;;1.30;99.90;;;;;;5090945;28;20473;-74
2022/03/19 05:38:46;;;;;;;10.30;5.37;;;1.30;99.90;;;;;;5096488;28;20514;-74
2022/03/19 05:41:34;;;;;;;10.90;5.70;;;1.30;99.90;;;;;;5081377;28;21081;-74
2022/03/19 05:44:23;;;;;;;9.27;5.20;;;1.40;99.90;;;;;;5091695;28;20561;-74
2022/03/19 05:47:12;;;;;;;9.33;5.20;;;1.40;99.90;;;;;;5094397;28;20483;-73
2022/03/19 05:50:00;;;;;;;9.23;5.43;;;1.30;99.90;;;;;;5096321;28;20924;-74
2022/03/19 05:52:48;;;;;;;8.50;4.90;;;1.30;99.90;;;;;;5099814;28;20988;-74
2022/03/19 05:55:36;;;;;;;12.17;5.43;;;1.30;99.90;;;;;;5092919;28;20535;-74
2022/03/19 05:58:26;;;;;;;8.00;5.10;;;1.30;99.90;;;;;;5080414;28;20492;-74
2022/03/19 06:01:15;;;;;;;8.77;5.50;;;1.40;99.90;;;;;;5093758;28;20459;-73
2022/03/19 06:04:05;;;;;;;7.17;5.10;;;1.40;99.90;;;;;;5091900;28;20500;-74
2022/03/19 06:06:54;;;;;;;8.23;4.97;;;1.40;99.90;;;;;;5096113;28;20548;-73
2022/03/19 06:09:42;;;;;;;7.87;4.70;;;1.40;99.90;;;;;;5095069;28;20491;-73
2022/03/19 06:12:30;;;;;;;6.70;5.10;;;1.40;99.90;;;;;;5093623;28;21017;-74
2022/03/19 06:15:18;;;;;;;8.10;4.60;;;1.50;99.90;;;;;;5094751;28;20598;-74
2022/03/19 06:18:06;;;;;;;8.13;4.80;;;1.50;99.90;;;;;;5094830;28;20575;-76
2022/03/19 06:20:56;;;;;;;7.63;5.13;;;1.60;99.90;;;;;;5092488;28;20563;-73
2022/03/19 06:23:46;;;;;;;9.07;5.47;;;1.70;99.90;;;;;;5083046;28;20592;-73
2022/03/19 06:26:34;;;;;;;9.93;5.83;;;1.80;99.90;;;;;;5091290;28;21018;-73
2022/03/19 06:29:23;;;;;;;5.97;4.83;;;1.80;99.90;;;;;;5093817;28;20473;-73
2022/03/19 06:32:11;;;;;;;7.50;5.33;;;1.90;99.90;;;;;;5097187;28;20455;-72
2022/03/19 06:34:59;;;;;;;11.57;5.30;;;2.00;99.90;;;;;;5096866;28;20500;-73
2022/03/19 06:37:48;;;;;;;11.40;5.20;;;2.10;99.90;;;;;;5102053;28;20476;-74
2022/03/19 06:40:36;;;;;;;11.27;5.43;;;2.20;99.90;;;;;;5093117;28;20944;-72
2022/03/19 06:43:25;;;;;;;6.30;4.73;;;2.30;99.90;;;;;;5106311;27;20575;-73
2022/03/19 06:46:13;;;;;;;8.63;4.07;;;2.40;99.90;;;;;;5112801;28;20512;-73
2022/03/19 06:49:01;;;;;;;9.20;4.63;;;2.70;99.90;;;;;;5090907;27;20447;-74
2022/03/19 06:51:50;;;;;;;10.80;4.87;;;2.80;99.90;;;;;;5090787;28;20517;-74
2022/03/19 06:54:41;;;;;;;5.50;4.13;;;2.80;99.90;;;;;;5092899;28;20528;-74
2022/03/19 06:57:30;;;;;;;7.30;4.23;;;2.80;99.90;;;;;;5091719;28;20632;-74
2022/03/19 07:00:18;;;;;;;5.93;4.37;;;2.80;99.90;;;;;;5088942;28;20522;-78
2022/03/19 07:03:09;;;;;;;9.97;4.33;;;2.90;99.90;;;;;;5092155;27;20568;-75
2022/03/19 07:05:58;;;;;;;8.60;3.83;;;3.00;99.90;;;;;;5086003;28;20533;-71
2022/03/19 07:09:07;;;;;;;9.20;4.40;;;3.10;99.90;;;;;;5091225;28;20456;-70
2022/03/19 07:11:56;;;;;;;5.20;3.93;;;3.10;99.90;;;;;;5088836;28;20490;-70
2022/03/19 07:14:44;;;;;;;12.03;3.70;;;3.20;99.90;;;;;;5085615;28;20548;-71
2022/03/19 07:17:33;;;;;;;7.40;3.90;;;3.30;99.90;;;;;;5091941;28;21015;-72
2022/03/19 07:20:22;;;;;;;5.40;3.60;;;3.40;99.90;;;;;;5091441;28;20615;-72
2022/03/19 07:23:10;;;;;;;5.83;3.73;;;3.50;99.90;;;;;;5091378;28;20551;-71
2022/03/19 07:25:59;;;;;;;10.87;4.10;;;3.60;99.90;;;;;;5091888;28;22750;-71
2022/03/19 07:28:48;;;;;;;10.57;3.77;;;3.70;99.90;;;;;;5086698;28;20472;-72
2022/03/19 07:31:37;;;;;;;8.00;3.43;;;3.70;99.90;;;;;;5088437;28;20449;-73
2022/03/19 07:34:26;;;;;;;9.43;3.30;;;3.80;99.90;;;;;;5087715;28;20480;-72
2022/03/19 07:37:15;;;;;;;7.67;3.77;;;3.90;99.90;;;;;;5089831;28;20509;-71
2022/03/19 07:40:03;;;;;;;7.07;3.50;;;4.00;99.90;;;;;;5088197;28;20548;-69
2022/03/19 07:42:50;;;;;;;6.60;3.73;;;4.10;99.90;;;;;;5090371;28;20531;-70
2022/03/19 07:45:41;;;;;;;9.03;3.10;;;4.20;99.90;;;;;;5089552;28;20491;-69
2022/03/19 07:48:29;;;;;;;9.00;3.23;;;4.30;99.90;;;;;;5086884;28;20448;-69
2022/03/19 07:51:18;;;;;;;7.57;3.40;;;4.40;99.90;;;;;;5081082;28;20539;-69
2022/03/19 07:54:06;;;;;;;7.80;3.63;;;4.50;99.90;;;;;;5084267;28;20476;-69
2022/03/19 07:56:55;;;;;;;8.40;3.07;;;4.60;99.90;;;;;;5094120;28;20453;-69
2022/03/19 07:59:43;;;;;;;9.90;3.10;;;4.70;99.90;;;;;;5088447;28;20463;-70
2022/03/19 08:02:32;;;;;;;4.60;2.87;;;4.80;99.90;;;;;;5096550;28;20454;-70
2022/03/19 08:05:20;;;;;;;9.23;3.37;;;4.90;99.90;;;;;;5091948;28;20473;-69
2022/03/19 08:08:09;;;;;;;8.33;3.30;;;5.00;99.90;;;;;;5093241;28;20929;-69
2022/03/19 08:10:57;;;;;;;5.33;2.80;;;5.10;99.90;;;;;;5080059;28;20469;-70
2022/03/19 08:13:45;;;;;;;5.40;2.97;;;5.10;99.90;;;;;;5081876;28;23287;-68
2022/03/19 08:16:33;;;;;;;7.10;2.93;;;5.20;99.90;;;;;;5089465;28;20451;-69
2022/03/19 08:19:25;;;;;;;6.20;3.40;;;5.30;99.90;;;;;;5084151;28;20959;-69
2022/03/19 08:22:14;;;;;;;9.20;3.30;;;5.50;99.90;;;;;;5086126;28;20476;-68
2022/03/19 08:25:03;;;;;;;6.17;2.77;;;5.60;99.90;;;;;;5083487;28;20468;-69
2022/03/19 08:27:53;;;;;;;5.23;2.40;;;5.60;99.90;;;;;;5085982;28;22307;-69
2022/03/19 08:30:41;;;;;;;5.27;2.70;;;5.80;99.90;;;;;;5098689;28;20452;-69
2022/03/19 08:33:29;;;;;;;5.60;2.53;;;5.90;99.90;;;;;;5096777;28;20554;-69
2022/03/19 08:36:19;;;;;;;7.87;3.93;;;5.90;99.90;;;;;;5085121;27;20494;-68
2022/03/19 08:42:13;;;;;;;8.23;3.47;;;6.10;99.90;;;;;;5092982;28;20450;-67
2022/03/19 08:45:01;;;;;;;4.87;2.90;;;6.20;99.90;;;;;;5082478;28;20569;-67
2022/03/19 08:47:50;;;;;;;7.77;2.43;;;6.30;99.90;;;;;;5095414;27;20476;-68
2022/03/19 08:50:38;;;;;;;5.07;2.97;;;6.40;99.90;;;;;;5096396;28;21030;-67
2022/03/19 08:53:27;;;;;;;4.93;2.23;;;6.50;99.90;;;;;;5087147;28;20476;-70
2022/03/19 08:56:15;;;;;;;5.60;2.53;;;6.60;99.90;;;;;;5093829;27;20553;-66
2022/03/19 08:59:04;;;;;;;8.13;2.77;;;6.70;99.90;;;;;;5087528;28;20445;-67
2022/03/19 09:01:54;;;;;;;8.87;3.30;;;6.90;99.90;;;;;;5095473;28;20480;-68
2022/03/19 09:04:42;;;;;;;5.43;3.17;;;7.00;99.90;;;;;;5076893;27;21034;-68
2022/03/19 09:07:30;;;;;;;3.73;2.40;;;7.10;99.90;;;;;;5089444;28;20508;-67
2022/03/19 09:10:20;;;;;;;6.17;2.57;;;7.30;99.90;;;;;;5094311;28;20475;-68
2022/03/19 09:13:08;;;;;;;4.87;2.70;;;7.40;99.90;;;;;;5099182;28;20452;-68
2022/03/19 09:15:57;;;;;;;5.50;3.00;;;7.60;99.90;;;;;;5098114;28;20480;-69
2022/03/19 09:18:45;;;;;;;4.63;2.40;;;7.70;99.90;;;;;;5093061;28;20543;-69
2022/03/19 09:21:33;;;;;;;5.30;2.57;;;7.80;99.90;;;;;;5096747;27;20598;-68
2022/03/19 09:24:22;;;;;;;4.90;2.10;;;7.90;99.90;;;;;;5081607;28;20477;-68
2022/03/19 09:27:11;;;;;;;3.57;2.37;;;8.00;99.90;;;;;;5097272;28;20530;-68
2022/03/19 09:29:59;;;;;;;4.90;2.43;;;8.20;99.90;;;;;;5093558;28;20459;-73
2022/03/19 09:32:47;;;;;;;6.33;3.13;;;8.30;99.90;;;;;;5092806;28;20495;-67
2022/03/19 09:35:57;;;;;;;6.23;2.60;;;8.40;99.90;;;;;;5094720;28;20802;-67
2022/03/19 09:38:45;;;;;;;5.67;2.60;;;8.50;99.90;;;;;;5101660;28;20459;-68
2022/03/19 09:41:35;;;;;;;2.97;2.00;;;8.50;99.90;;;;;;5101039;28;20459;-70
2022/03/19 09:44:26;;;;;;;3.63;2.20;;;8.60;99.90;;;;;;5095243;27;20606;-67
2022/03/19 09:47:15;;;;;;;3.97;2.00;;;8.70;99.90;;;;;;5088426;28;20472;-67
2022/03/19 09:50:03;;;;;;;3.60;1.90;;;8.80;99.90;;;;;;5090154;28;20494;-67
2022/03/19 09:52:54;;;;;;;3.73;1.60;;;8.90;99.90;;;;;;5088575;28;20464;-67
2022/03/19 09:55:46;;;;;;;7.73;2.20;;;9.00;99.90;;;;;;5092737;27;20584;-67
2022/03/19 09:58:34;;;;;;;3.33;1.67;;;9.10;99.90;;;;;;5093521;28;20456;-67
2022/03/19 10:01:25;;;;;;;2.20;1.50;;;9.10;99.90;;;;;;5097358;28;20538;-67
2022/03/19 10:04:17;;;;;;;3.67;1.90;;;9.20;99.90;;;;;;5098879;28;20562;-67
2022/03/19 10:10:13;;;;;;;4.10;1.80;;;9.40;99.90;;;;;;5090550;27;20451;-70
2022/03/19 10:13:06;;;;;;;4.83;1.80;;;9.50;99.90;;;;;;5085517;28;20898;-67
2022/03/19 10:15:55;;;;;;;2.30;1.43;;;9.50;99.90;;;;;;5088648;28;20488;-67
2022/03/19 10:18:44;;;;;;;3.57;1.63;;;9.70;99.90;;;;;;5089359;28;21182;-67
2022/03/19 10:21:37;;;;;;;5.27;1.90;;;9.80;99.90;;;;;;5084514;27;20576;-67
2022/03/19 10:24:30;;;;;;;2.80;1.60;;;9.80;99.90;;;;;;5090505;28;20479;-68
2022/03/19 10:27:19;;;;;;;5.07;1.90;;;9.90;99.90;;;;;;5097524;27;20485;-72
2022/03/19 10:30:11;;;;;;;3.57;1.67;;;9.90;99.90;;;;;;5105130;27;20507;-72
2022/03/19 10:32:59;;;;;;;5.10;1.60;;;10.00;99.90;;;;;;5104771;28;20503;-71
2022/03/19 10:35:49;;;;;;;2.60;1.43;;;10.10;99.90;;;;;;5087390;27;20514;-71
2022/03/19 10:38:44;;;;;;;2.83;1.57;;;10.10;99.90;;;;;;5089437;27;20452;-73
2022/03/19 10:41:35;;;;;;;3.73;1.70;;;10.20;99.90;;;;;;5093208;28;20468;-71
2022/03/19 10:44:25;;;;;;;4.13;1.80;;;10.20;99.90;;;;;;5093032;28;20476;-72
2022/03/19 10:47:21;;;;;;;3.30;1.70;;;10.30;99.90;;;;;;5098128;28;20568;-74
2022/03/19 10:50:10;;;;;;;2.90;1.90;;;10.40;99.90;;;;;;5093695;28;20471;-74
2022/03/19 10:53:01;;;;;;;3.83;1.50;;;10.50;99.90;;;;;;5084038;28;21676;-75
2022/03/19 10:55:50;;;;;;;4.13;1.70;;;10.60;99.90;;;;;;5086488;27;20476;-72
2022/03/19 10:58:38;;;;;;;1.93;1.37;;;10.70;99.90;;;;;;5092650;28;20451;-72
2022/03/19 11:01:27;;;;;;;1.83;1.40;;;10.90;99.90;;;;;;5090298;28;21015;-73
2022/03/19 11:04:16;;;;;;;1.93;1.30;;;11.00;99.90;;;;;;5089071;28;20472;-73
2022/03/19 11:07:06;;;;;;;2.20;1.70;;;11.10;99.90;;;;;;5092854;27;20472;-74
2022/03/19 11:09:58;;;;;;;2.10;1.63;;;11.10;99.90;;;;;;5073662;28;20460;-75
2022/03/19 11:12:51;;;;;;;2.47;1.90;;;11.20;99.90;;;;;;5092898;28;20475;-74
2022/03/19 11:15:40;;;;;;;3.37;2.37;;;11.40;99.90;;;;;;5071386;28;20575;-68
2022/03/19 11:18:29;;;;;;;2.30;2.00;;;11.40;99.90;;;;;;5080076;28;20459;-67
2022/03/19 11:21:18;;;;;;;2.87;1.77;;;11.50;99.90;;;;;;5074314;28;20481;-74
2022/03/19 11:24:20;;;;;;;1.40;1.30;;;11.40;99.90;;;;;;5084383;28;20464;-74
2022/03/19 11:27:10;;;;;;;2.30;1.60;;;11.50;99.90;;;;;;5086169;28;21003;-75
2022/03/19 11:29:59;;;;;;;3.07;1.77;;;11.60;99.90;;;;;;5083567;27;20456;-74
2022/03/19 11:33:05;;;;;;;2.37;1.40;;;11.70;99.90;;;;;;5083848;27;21592;-70
2022/03/19 11:36:05;;;;;;;2.50;1.53;;;11.90;99.90;;;;;;5091522;28;20471;-67
2022/03/19 11:38:54;;;;;;;1.80;1.63;;;12.00;99.90;;;;;;5089102;28;20538;-68
2022/03/19 11:41:48;;;;;;;2.70;1.80;;;12.00;99.90;;;;;;5092473;28;20998;-68
2022/03/19 11:44:49;;;;;;;2.93;1.53;;;12.10;99.90;;;;;;5084704;28;21024;-68
2022/03/19 11:47:38;;;;;;;2.80;1.90;;;12.20;99.90;;;;;;5082369;28;20581;-68
2022/03/19 11:50:31;;;;;;;2.53;1.83;;;12.20;99.90;;;;;;5088822;28;20543;-68
2022/03/19 11:53:19;;;;;;;2.17;1.93;;;12.10;99.90;;;;;;5091623;28;20564;-68
2022/03/19 11:56:07;;;;;;;2.70;2.20;;;12.30;99.90;;;;;;5082827;28;21900;-68
2022/03/19 11:58:56;;;;;;;4.27;1.97;;;12.50;99.90;;;;;;5079484;28;20455;-67
2022/03/19 12:01:54;;;;;;;2.50;2.10;;;12.60;99.90;;;;;;5065641;28;20489;-71
2022/03/19 12:04:45;;;;;;;2.73;2.00;;;12.70;99.90;;;;;;5070120;28;20508;-67
2022/03/19 12:07:41;;;;;;;2.23;2.00;;;12.80;99.90;;;;;;5066166;28;20538;-67
2022/03/19 12:10:38;;;;;;;2.77;1.77;;;13.00;99.90;;;;;;5064275;28;21344;-68
2022/03/19 12:13:41;;;;;;;3.33;2.20;;;13.30;99.90;;;;;;5083672;28;20467;-68
2022/03/19 12:16:40;;;;;;;2.57;2.00;;;13.40;99.90;;;;;;5086267;28;20562;-68
2022/03/19 12:19:51;;;;;;;4.03;2.10;;;13.50;99.90;;;;;;5090466;28;20451;-68
2022/03/19 12:22:44;;;;;;;3.90;2.50;;;13.70;99.90;;;;;;5083458;28;20463;-68
2022/03/19 12:25:35;;;;;;;2.43;1.80;;;13.70;99.90;;;;;;5090925;28;20556;-68
2022/03/19 12:28:23;;;;;;;3.17;2.60;;;13.50;99.90;;;;;;5093058;28;20476;-70
2022/03/19 12:31:14;;;;;;;2.50;2.07;;;13.20;99.90;;;;;;5107504;28;20441;-67
2022/03/19 12:34:04;;;;;;;2.10;1.90;;;12.90;99.90;;;;;;5099210;28;20563;-68
2022/03/19 12:36:58;;;;;;;4.43;1.80;;;13.00;99.90;;;;;;5095481;28;21050;-68
2022/03/19 12:39:57;;;;;;;2.80;2.33;;;13.30;99.90;;;;;;5091343;28;20515;-68
2022/03/19 12:42:51;;;;;;;2.07;1.87;;;13.50;99.90;;;;;;5099660;28;20460;-68
2022/03/19 12:45:41;;;;;;;3.43;2.10;;;14.20;99.90;;;;;;5097519;28;20503;-68
2022/03/19 12:48:32;;;;;;;3.40;2.23;;;15.00;99.90;;;;;;5091580;28;20575;-69
2022/03/19 12:51:25;;;;;;;5.10;2.40;;;15.90;99.90;;;;;;5095923;28;20508;-69
2022/03/19 12:54:19;;;;;;;2.33;2.13;;;16.30;99.90;;;;;;5094768;28;20485;-69
2022/03/19 12:57:10;;;;;;;3.30;2.60;;;16.70;99.90;;;;;;5096403;28;20445;-68
2022/03/19 13:00:03;;;;;;;2.40;2.20;;;16.40;99.90;;;;;;5095379;28;20448;-69
2022/03/19 13:02:51;;;;;;;4.80;2.37;;;16.70;99.90;;;;;;5093604;28;20463;-69
2022/03/19 13:05:50;;;;;;;2.53;2.33;;;17.70;99.90;;;;;;5091097;28;20475;-70
2022/03/19 13:08:45;;;;;;;2.90;2.70;;;17.20;99.90;;;;;;5092955;27;20988;-69
2022/03/19 13:11:43;;;;;;;2.80;2.53;;;16.00;99.90;;;;;;5096420;28;21209;-69
2022/03/19 13:14:32;;;;;;;2.77;2.43;;;15.30;99.90;;;;;;5094868;28;20833;-69
2022/03/19 13:17:21;;;;;;;3.33;2.30;;;16.50;99.90;;;;;;5091678;28;20467;-70
2022/03/19 13:20:11;;;;;;;3.07;2.50;;;19.10;99.90;;;;;;5089275;28;20464;-68
2022/03/19 13:23:00;;;;;;;5.90;3.40;;;20.60;99.90;;;;;;5093899;28;20570;-69
2022/03/19 13:25:50;;;;;;;3.10;2.73;;;20.00;99.90;;;;;;5089748;28;21071;-70
2022/03/19 13:28:59;;;;;;;2.90;2.57;;;19.40;99.90;;;;;;5093867;28;21011;-69
2022/03/19 13:31:56;;;;;;;3.43;2.57;;;20.90;99.90;;;;;;5091857;27;20457;-67
2022/03/19 13:34:46;;;;;;;2.73;2.53;;;22.60;99.90;;;;;;5087831;27;22303;-67
2022/03/19 13:37:37;;;;;;;2.80;2.60;;;23.20;99.90;;;;;;5094309;28;20445;-67
2022/03/19 13:40:30;;;;;;;2.70;2.50;;;22.70;97.50;;;;;;5096135;28;20452;-67
2022/03/19 13:43:18;;;;;;;2.87;2.60;;;20.70;99.30;;;;;;5091644;28;20503;-68
2022/03/19 13:46:17;;;;;;;3.20;2.60;;;19.60;99.90;;;;;;5095361;28;20472;-68
2022/03/19 13:49:16;;;;;;;3.13;2.93;;;19.00;99.90;;;;;;5092659;28;20517;-71
2022/03/19 13:52:06;;;;;;;3.10;2.80;;;19.00;99.90;;;;;;5087554;28;20985;-70
2022/03/19 13:54:56;;;;;;;3.97;3.30;;;19.30;99.90;;;;;;5088589;28;20506;-70
2022/03/19 13:57:46;;;;;;;3.60;3.30;;;19.10;99.90;;;;;;5067929;28;20978;-69
2022/03/19 14:00:39;;;;;;;3.97;3.67;;;18.90;99.90;;;;;;5088068;28;20505;-76
2022/03/19 14:03:29;;;;;;;4.07;3.53;;;17.80;99.90;;;;;;5086032;28;20484;-75
2022/03/19 14:06:17;;;;;;;4.10;3.80;;;17.30;99.90;;;;;;5081112;28;20486;-68
2022/03/19 14:09:07;;;;;;;3.57;3.27;;;16.80;99.90;;;;;;5083190;27;20512;-71
2022/03/19 14:11:55;;;;;;;4.37;4.00;;;16.60;99.90;;;;;;5071896;28;20998;-70
2022/03/19 14:14:43;;;;;;;4.33;4.03;;;16.40;99.90;;;;;;5085708;27;20505;-71
2022/03/19 14:17:49;;;;;;;3.90;3.60;;;16.20;99.90;;;;;;5083572;28;21041;-67
2022/03/19 14:20:38;;;;;;;4.07;3.77;;;16.00;99.90;;;;;;5088366;28;20460;-70
2022/03/19 14:23:27;;;;;;;4.07;3.77;;;15.60;99.90;;;;;;5089347;28;20999;-68
2022/03/19 14:26:16;;;;;;;4.80;4.30;;;15.30;99.90;;;;;;5080935;27;20474;-69
2022/03/19 14:29:04;;;;;;;6.73;4.20;;;15.20;99.90;;;;;;5070370;27;20483;-68
2022/03/19 14:31:52;;;;;;;4.00;3.70;;;14.90;99.90;;;;;;5082006;28;20451;-68
2022/03/19 14:34:40;;;;;;;4.70;4.30;;;14.50;99.90;;;;;;5079695;28;20491;-71
2022/03/19 14:37:30;;;;;;;4.40;4.10;;;14.40;99.90;;;;;;5080789;27;20479;-67
2022/03/19 14:40:18;;;;;;;4.90;4.40;;;14.10;99.90;;;;;;5073980;28;20436;-67
2022/03/19 14:43:06;;;;;;;4.70;4.30;;;14.00;99.90;;;;;;5080005;28;20479;-67
2022/03/19 14:45:57;;;;;;;4.83;4.43;;;13.70;99.90;;;;;;5074880;28;21045;-68
2022/03/19 14:48:46;;;;;;;5.20;4.70;;;13.50;99.90;;;;;;5076987;27;20452;-69
2022/03/19 14:51:34;;;;;;;5.40;4.90;;;13.40;99.90;;;;;;5084235;28;20483;-67
2022/03/19 14:54:24;;;;;;;4.87;4.40;;;13.30;99.90;;;;;;5083225;28;20623;-67
2022/03/19 14:57:13;;;;;;;4.63;4.23;;;13.30;99.90;;;;;;5076297;27;20598;-70
2022/03/19 15:00:01;;;;;;;4.80;4.40;;;13.30;99.90;;;;;;5089688;28;20463;-70